Time;durP1;ratioP1;P1;durP2;ratioP2;P2;SDS_P1;SDS_P2;PMS_P1;PMS_P2;Temp;Humidity;BMP_temperature;BMP_pressure;BME280_temperature;BME280_humidity;BME280_pressure;Samples;Min_cycle;Max_cycle;Signal;HPM_P1;HPM_P2
2020/12/07 00:00:11;;;;;;;0.30;0.30;;;;;;;;;;5071769;28;20259;-71
2020/12/07 00:02:36;;;;;;;0.30;0.30;;;;;;;;;;5054699;28;20016;-72
2020/12/07 00:05:01;;;;;;;0.20;0.20;;;;;;;;;;5073180;28;20112;-71
2020/12/07 00:07:27;;;;;;;0.30;0.30;;;;;;;;;;5078336;28;20374;-72
2020/12/07 00:09:52;;;;;;;0.20;0.20;;;;;;;;;;5093341;28;20518;-72
2020/12/07 00:12:17;;;;;;;0.20;0.20;;;;;;;;;;5064816;28;20016;-72
2020/12/07 00:14:42;;;;;;;0.30;0.30;;;;;;;;;;5099982;28;20035;-72
2020/12/07 00:17:08;;;;;;;0.20;0.20;;;;;;;;;;5082188;28;20059;-72
2020/12/07 00:19:34;;;;;;;0.20;0.20;;;;;;;;;;5102294;28;20012;-72
2020/12/07 00:21:59;;;;;;;0.30;0.30;;;;;;;;;;5103049;28;20469;-72
2020/12/07 00:24:25;;;;;;;0.20;0.20;;;;;;;;;;5084908;28;20024;-71
2020/12/07 00:26:50;;;;;;;0.20;0.20;;;;;;;;;;5069491;28;20016;-71
2020/12/07 00:29:15;;;;;;;0.30;0.30;;;;;;;;;;5104875;28;20027;-71
2020/12/07 00:31:40;;;;;;;0.20;0.20;;;;;;;;;;5082753;28;20729;-72
2020/12/07 00:34:05;;;;;;;0.20;0.20;;;;;;;;;;5081768;28;20349;-72
2020/12/07 00:36:30;;;;;;;0.20;0.20;;;;;;;;;;5081732;28;20111;-72
2020/12/07 00:38:56;;;;;;;0.30;0.30;;;;;;;;;;5064613;28;20758;-72
2020/12/07 00:41:21;;;;;;;0.20;0.20;;;;;;;;;;5099509;28;20016;-71
2020/12/07 00:43:47;;;;;;;0.30;0.30;;;;;;;;;;5081550;28;20077;-71
2020/12/07 00:46:12;;;;;;;0.30;0.30;;;;;;;;;;5061181;28;20029;-71
2020/12/07 00:48:37;;;;;;;0.20;0.20;;;;;;;;;;5061222;28;20023;-71
2020/12/07 00:51:02;;;;;;;0.20;0.20;;;;;;;;;;5080603;28;20028;-71
2020/12/07 00:53:28;;;;;;;0.30;0.30;;;;;;;;;;5081611;28;20627;-71
2020/12/07 00:55:53;;;;;;;0.30;0.30;;;;;;;;;;5081385;28;20777;-71
2020/12/07 00:58:18;;;;;;;0.20;0.20;;;;;;;;;;5081542;28;20024;-71
2020/12/07 01:00:44;;;;;;;0.20;0.20;;;;;;;;;;5099344;28;20028;-71
2020/12/07 01:03:10;;;;;;;0.30;0.30;;;;;;;;;;5064743;28;20285;-71
2020/12/07 01:05:35;;;;;;;0.30;0.30;;;;;;;;;;5081782;28;20422;-71
2020/12/07 01:08:00;;;;;;;0.30;0.30;;;;;;;;;;5081638;28;20024;-71
2020/12/07 01:10:26;;;;;;;0.30;0.30;;;;;;;;;;5059453;28;20095;-71
2020/12/07 01:12:51;;;;;;;0.20;0.20;;;;;;;;;;5038026;28;20029;-72
2020/12/07 01:15:16;;;;;;;0.20;0.20;;;;;;;;;;5053939;28;20767;-72
2020/12/07 01:17:41;;;;;;;0.20;0.20;;;;;;;;;;5054481;28;20104;-71
2020/12/07 01:20:07;;;;;;;0.20;0.20;;;;;;;;;;5055939;28;20048;-72
2020/12/07 01:22:32;;;;;;;0.30;0.30;;;;;;;;;;5055940;28;20036;-71
2020/12/07 01:24:58;;;;;;;0.30;0.30;;;;;;;;;;5054486;28;20032;-72
2020/12/07 01:27:23;;;;;;;0.30;0.30;;;;;;;;;;5054732;28;20082;-72
2020/12/07 01:29:49;;;;;;;0.20;0.20;;;;;;;;;;5054571;28;20021;-71
2020/12/07 01:32:14;;;;;;;0.20;0.20;;;;;;;;;;5054436;28;20587;-71
2020/12/07 01:34:40;;;;;;;0.30;0.30;;;;;;;;;;5055731;28;20263;-71
2020/12/07 01:37:05;;;;;;;0.20;0.20;;;;;;;;;;5054409;28;20431;-71
2020/12/07 01:39:30;;;;;;;0.20;0.20;;;;;;;;;;5055483;28;20115;-71
2020/12/07 01:41:56;;;;;;;0.20;0.20;;;;;;;;;;5055335;28;20021;-71
2020/12/07 01:44:21;;;;;;;0.30;0.30;;;;;;;;;;5054216;28;20025;-71
2020/12/07 01:46:46;;;;;;;0.30;0.30;;;;;;;;;;5054130;28;20013;-71
2020/12/07 01:49:11;;;;;;;0.23;0.23;;;;;;;;;;5054414;28;20083;-71
2020/12/07 01:51:37;;;;;;;0.30;0.30;;;;;;;;;;5054179;28;20267;-71
2020/12/07 01:54:02;;;;;;;0.20;0.20;;;;;;;;;;5037513;28;20033;-71
2020/12/07 01:56:29;;;;;;;0.30;0.30;;;;;;;;;;5037425;28;20025;-71
2020/12/07 01:58:58;;;;;;;0.20;0.20;;;;;;;;;;5054372;28;20483;-71
2020/12/07 02:01:23;;;;;;;0.20;0.20;;;;;;;;;;5055275;28;20024;-71
2020/12/07 02:03:49;;;;;;;0.20;0.20;;;;;;;;;;5053871;28;20024;-71
2020/12/07 02:06:14;;;;;;;0.30;0.30;;;;;;;;;;5053724;28;20017;-71
2020/12/07 02:08:39;;;;;;;0.20;0.20;;;;;;;;;;5057383;28;20566;-70
2020/12/07 02:11:04;;;;;;;0.20;0.20;;;;;;;;;;5073945;28;20278;-71
2020/12/07 02:13:30;;;;;;;0.30;0.30;;;;;;;;;;5074119;28;20025;-72
2020/12/07 02:15:55;;;;;;;0.20;0.20;;;;;;;;;;5073912;28;20291;-72
2020/12/07 02:18:21;;;;;;;0.30;0.30;;;;;;;;;;5075547;28;20024;-71
2020/12/07 02:20:47;;;;;;;0.30;0.30;;;;;;;;;;5074262;28;20596;-72
2020/12/07 02:23:12;;;;;;;0.20;0.20;;;;;;;;;;5073755;28;20028;-72
2020/12/07 02:25:38;;;;;;;0.30;0.30;;;;;;;;;;5074182;28;20453;-72
2020/12/07 02:28:03;;;;;;;0.30;0.30;;;;;;;;;;5074547;28;20495;-71
2020/12/07 02:30:28;;;;;;;0.20;0.20;;;;;;;;;;5073512;28;20258;-71
2020/12/07 02:32:53;;;;;;;0.30;0.30;;;;;;;;;;5074574;28;20267;-72
2020/12/07 02:35:18;;;;;;;0.30;0.30;;;;;;;;;;5073287;28;20333;-72
2020/12/07 02:37:44;;;;;;;0.30;0.30;;;;;;;;;;5073319;28;20278;-71
2020/12/07 02:40:09;;;;;;;0.30;0.30;;;;;;;;;;5073308;28;20508;-72
2020/12/07 02:42:35;;;;;;;0.30;0.30;;;;;;;;;;5073260;28;20017;-72
2020/12/07 02:45:01;;;;;;;0.30;0.30;;;;;;;;;;5073325;28;20056;-72
2020/12/07 02:47:27;;;;;;;0.30;0.30;;;;;;;;;;5073529;28;20017;-72
2020/12/07 02:49:55;;;;;;;0.30;0.30;;;;;;;;;;5073271;28;20028;-72
2020/12/07 02:52:23;;;;;;;0.20;0.20;;;;;;;;;;5073325;28;20016;-72
2020/12/07 02:54:48;;;;;;;0.22;0.22;;;;;;;;;;5072931;28;20055;-72
2020/12/07 02:57:14;;;;;;;0.20;0.20;;;;;;;;;;5072737;28;20024;-72
2020/12/07 02:59:39;;;;;;;0.30;0.30;;;;;;;;;;5074125;28;20670;-72
2020/12/07 03:02:04;;;;;;;0.30;0.30;;;;;;;;;;5074019;28;20023;-71
2020/12/07 03:04:29;;;;;;;0.20;0.20;;;;;;;;;;5072573;28;20489;-71
2020/12/07 03:06:54;;;;;;;0.20;0.20;;;;;;;;;;5072382;28;20073;-71
2020/12/07 03:09:20;;;;;;;0.23;0.23;;;;;;;;;;5072300;28;20297;-70
2020/12/07 03:11:45;;;;;;;0.27;0.27;;;;;;;;;;5072664;28;20607;-71
2020/12/07 03:14:10;;;;;;;0.20;0.20;;;;;;;;;;5072675;28;20362;-71
2020/12/07 03:16:36;;;;;;;0.20;0.20;;;;;;;;;;5055753;28;20255;-71
2020/12/07 03:19:01;;;;;;;0.30;0.30;;;;;;;;;;5072404;28;20067;-71
2020/12/07 03:21:27;;;;;;;0.30;0.30;;;;;;;;;;5072621;28;20480;-71
2020/12/07 03:23:53;;;;;;;0.20;0.20;;;;;;;;;;5073380;28;20021;-71
2020/12/07 03:26:18;;;;;;;0.30;0.30;;;;;;;;;;5072229;28;20031;-71
2020/12/07 03:28:43;;;;;;;0.30;0.30;;;;;;;;;;5072397;28;20012;-71
2020/12/07 03:31:09;;;;;;;0.20;0.20;;;;;;;;;;5055431;28;20262;-72
2020/12/07 03:33:34;;;;;;;0.30;0.30;;;;;;;;;;5073325;28;20520;-72
2020/12/07 03:36:00;;;;;;;0.28;0.28;;;;;;;;;;5073703;28;20086;-71
2020/12/07 03:38:25;;;;;;;0.20;0.20;;;;;;;;;;5072203;28;20021;-71
2020/12/07 03:40:50;;;;;;;0.30;0.30;;;;;;;;;;5073078;28;20384;-72
2020/12/07 03:43:16;;;;;;;0.30;0.30;;;;;;;;;;5055321;28;20119;-71
2020/12/07 03:45:42;;;;;;;0.25;0.25;;;;;;;;;;5051886;28;20264;-71
2020/12/07 03:48:07;;;;;;;0.20;0.20;;;;;;;;;;5035788;28;20017;-71
2020/12/07 03:50:33;;;;;;;0.20;0.20;;;;;;;;;;5061535;28;20532;-71
2020/12/07 03:52:59;;;;;;;0.30;0.30;;;;;;;;;;5073530;28;20036;-71
2020/12/07 03:55:24;;;;;;;0.20;0.20;;;;;;;;;;5051788;28;20029;-71
2020/12/07 03:57:49;;;;;;;0.30;0.30;;;;;;;;;;5053252;28;20048;-71
2020/12/07 04:00:14;;;;;;;0.30;0.30;;;;;;;;;;5046779;28;20319;-71
2020/12/07 04:02:40;;;;;;;0.30;0.30;;;;;;;;;;5053298;28;20271;-71
2020/12/07 04:05:15;;;;;;;0.30;0.30;;;;;;;;;;5055111;28;20377;-71
2020/12/07 04:07:40;;;;;;;0.20;0.20;;;;;;;;;;5056787;28;20025;-71
2020/12/07 04:10:05;;;;;;;0.20;0.20;;;;;;;;;;5056593;28;20049;-71
2020/12/07 04:12:31;;;;;;;0.30;0.30;;;;;;;;;;5053130;28;20041;-71
2020/12/07 04:14:57;;;;;;;0.30;0.30;;;;;;;;;;5052047;28;20135;-71
2020/12/07 04:17:22;;;;;;;0.30;0.30;;;;;;;;;;5034955;28;20033;-71
2020/12/07 04:19:47;;;;;;;0.30;0.30;;;;;;;;;;5052860;28;20520;-71
2020/12/07 04:22:13;;;;;;;0.20;0.20;;;;;;;;;;5051915;28;20096;-71
2020/12/07 04:24:38;;;;;;;0.20;0.20;;;;;;;;;;5052975;28;20435;-70
2020/12/07 04:27:04;;;;;;;0.30;0.30;;;;;;;;;;5051629;28;20013;-72
2020/12/07 04:29:29;;;;;;;0.20;0.20;;;;;;;;;;5031599;28;20030;-72
2020/12/07 04:31:54;;;;;;;0.20;0.20;;;;;;;;;;5031779;28;20264;-72
2020/12/07 04:34:19;;;;;;;0.27;0.27;;;;;;;;;;5035976;28;20275;-71
2020/12/07 04:36:44;;;;;;;0.30;0.30;;;;;;;;;;5051538;28;20301;-72
2020/12/07 04:39:09;;;;;;;0.30;0.30;;;;;;;;;;5051350;28;20384;-72
2020/12/07 04:41:35;;;;;;;0.30;0.30;;;;;;;;;;5052560;28;20028;-71
2020/12/07 04:44:01;;;;;;;0.30;0.30;;;;;;;;;;5051181;28;20037;-71
2020/12/07 04:46:26;;;;;;;0.25;0.25;;;;;;;;;;5051487;28;20088;-71
2020/12/07 04:48:51;;;;;;;0.28;0.28;;;;;;;;;;5051423;28;20028;-71
2020/12/07 04:51:17;;;;;;;0.30;0.30;;;;;;;;;;5051318;28;20091;-71
2020/12/07 04:53:42;;;;;;;0.30;0.30;;;;;;;;;;5037646;28;20437;-71
2020/12/07 04:56:07;;;;;;;0.30;0.30;;;;;;;;;;5054982;28;20278;-71
2020/12/07 04:58:33;;;;;;;0.30;0.30;;;;;;;;;;5056219;28;20036;-71
2020/12/07 05:01:00;;;;;;;0.30;0.30;;;;;;;;;;5055125;28;20024;-71
2020/12/07 05:03:26;;;;;;;0.20;0.20;;;;;;;;;;5054947;28;20013;-72
2020/12/07 05:05:52;;;;;;;0.30;0.30;;;;;;;;;;5056462;28;20035;-72
2020/12/07 05:08:17;;;;;;;0.30;0.30;;;;;;;;;;5046418;28;20097;-72
2020/12/07 05:10:44;;;;;;;0.30;0.30;;;;;;;;;;5058029;28;20032;-72
2020/12/07 05:13:45;;;;;;;0.20;0.20;;;;;;;;;;5074851;28;20012;-72
2020/12/07 05:16:02;;;;;;;0.30;0.30;;;;;;;;;;5075412;28;20410;-72
2020/12/07 05:18:27;;;;;;;0.20;0.20;;;;;;;;;;5078331;28;20020;-72
2020/12/07 05:20:53;;;;;;;0.25;0.25;;;;;;;;;;5078058;28;20380;-72
2020/12/07 05:23:19;;;;;;;0.25;0.25;;;;;;;;;;5094829;28;20121;-71
2020/12/07 05:25:45;;;;;;;0.20;0.20;;;;;;;;;;5096046;28;20019;-71
2020/12/07 05:28:11;;;;;;;0.20;0.20;;;;;;;;;;5058017;28;20016;-71
2020/12/07 05:30:41;;;;;;;0.30;0.30;;;;;;;;;;5041159;28;20357;-72
2020/12/07 05:33:06;;;;;;;0.30;0.30;;;;;;;;;;5077133;28;20024;-71
2020/12/07 05:35:36;;;;;;;0.25;0.25;;;;;;;;;;5077804;28;20205;-71
2020/12/07 05:38:04;;;;;;;0.30;0.30;;;;;;;;;;5057506;28;20024;-72
2020/12/07 05:40:30;;;;;;;0.20;0.20;;;;;;;;;;5058727;28;20030;-71
2020/12/07 05:42:56;;;;;;;0.20;0.20;;;;;;;;;;5060452;28;20110;-71
2020/12/07 05:45:21;;;;;;;0.30;0.30;;;;;;;;;;5060732;28;20720;-71
2020/12/07 05:47:46;;;;;;;0.30;0.30;;;;;;;;;;5057220;28;20020;-71
2020/12/07 05:50:12;;;;;;;0.20;0.20;;;;;;;;;;5057414;28;20453;-72
2020/12/07 05:52:37;;;;;;;0.30;0.30;;;;;;;;;;5075217;28;20291;-71
2020/12/07 05:55:02;;;;;;;0.20;0.20;;;;;;;;;;5074743;28;20545;-71
2020/12/07 05:57:28;;;;;;;0.30;0.30;;;;;;;;;;5077015;28;20281;-71
2020/12/07 06:00:01;;;;;;;0.20;0.20;;;;;;;;;;5078130;28;20020;-71
2020/12/07 06:02:26;;;;;;;0.30;0.30;;;;;;;;;;5077296;28;20020;-71
2020/12/07 06:04:51;;;;;;;0.20;0.20;;;;;;;;;;5076875;28;20491;-72
2020/12/07 06:07:18;;;;;;;0.30;0.30;;;;;;;;;;5095002;28;20266;-71
2020/12/07 06:09:43;;;;;;;0.30;0.30;;;;;;;;;;5075219;28;20517;-72
2020/12/07 06:12:13;;;;;;;0.20;0.20;;;;;;;;;;5050860;28;20020;-72
2020/12/07 06:14:38;;;;;;;0.20;0.20;;;;;;;;;;5053861;28;20023;-71
2020/12/07 06:17:04;;;;;;;0.20;0.20;;;;;;;;;;5065410;28;20111;-71
2020/12/07 06:19:32;;;;;;;0.20;0.20;;;;;;;;;;5074985;28;20384;-72
2020/12/07 06:21:59;;;;;;;0.20;0.20;;;;;;;;;;5073691;28;20654;-72
2020/12/07 06:24:40;;;;;;;0.30;0.30;;;;;;;;;;5073318;28;20056;-71
2020/12/07 06:27:07;;;;;;;0.20;0.20;;;;;;;;;;5073870;28;20027;-71
2020/12/07 06:29:32;;;;;;;0.30;0.30;;;;;;;;;;5074005;28;20369;-71
2020/12/07 06:31:58;;;;;;;0.20;0.20;;;;;;;;;;5067228;28;20071;-71
2020/12/07 06:34:33;;;;;;;0.30;0.30;;;;;;;;;;5054162;28;20139;-73
2020/12/07 06:36:59;;;;;;;0.20;0.20;;;;;;;;;;5055705;28;20021;-71
2020/12/07 06:39:24;;;;;;;0.30;0.30;;;;;;;;;;5055843;28;20363;-70
2020/12/07 06:41:50;;;;;;;0.30;0.30;;;;;;;;;;5074496;28;20444;-71
2020/12/07 06:44:16;;;;;;;0.30;0.30;;;;;;;;;;5073349;28;20480;-71
2020/12/07 06:46:48;;;;;;;0.30;0.30;;;;;;;;;;5074495;28;20009;-71
2020/12/07 06:49:13;;;;;;;0.30;0.30;;;;;;;;;;5073022;28;20017;-71
2020/12/07 06:51:39;;;;;;;0.30;0.30;;;;;;;;;;5073058;28;20492;-72
2020/12/07 06:54:13;;;;;;;0.30;0.30;;;;;;;;;;5072643;28;20372;-73
2020/12/07 06:56:38;;;;;;;0.30;0.30;;;;;;;;;;5072935;28;20028;-74
2020/12/07 06:59:07;;;;;;;0.30;0.30;;;;;;;;;;5052693;28;20021;-73
2020/12/07 07:01:32;;;;;;;0.20;0.20;;;;;;;;;;5071298;28;20028;-75
2020/12/07 07:03:58;;;;;;;0.30;0.30;;;;;;;;;;5070392;28;20035;-74
2020/12/07 07:06:23;;;;;;;0.30;0.30;;;;;;;;;;5075269;28;20376;-75
2020/12/07 07:08:48;;;;;;;0.20;0.20;;;;;;;;;;5071214;28;20504;-75
2020/12/07 07:11:14;;;;;;;0.30;0.30;;;;;;;;;;5046424;28;20056;-74
2020/12/07 07:13:39;;;;;;;0.20;0.20;;;;;;;;;;5045511;28;20017;-73
2020/12/07 07:16:05;;;;;;;0.22;0.22;;;;;;;;;;5020643;28;20113;-73
2020/12/07 07:18:31;;;;;;;0.20;0.20;;;;;;;;;;5034935;28;20028;-73
2020/12/07 07:21:00;;;;;;;0.20;0.20;;;;;;;;;;5050832;28;20021;-74
2020/12/07 07:23:25;;;;;;;0.20;0.20;;;;;;;;;;5050683;28;20536;-73
2020/12/07 07:26:08;;;;;;;0.20;0.20;;;;;;;;;;5036150;28;20037;-72
2020/12/07 07:28:34;;;;;;;0.20;0.20;;;;;;;;;;5051542;28;20021;-74
2020/12/07 07:31:04;;;;;;;0.25;0.25;;;;;;;;;;5049607;28;20421;-74
2020/12/07 07:33:29;;;;;;;0.30;0.30;;;;;;;;;;5050941;28;20020;-74
2020/12/07 07:35:54;;;;;;;0.30;0.30;;;;;;;;;;5051094;28;20021;-74
2020/12/07 07:38:19;;;;;;;0.30;0.30;;;;;;;;;;5050803;28;20464;-74
2020/12/07 07:40:45;;;;;;;0.25;0.25;;;;;;;;;;5050656;28;20114;-74
2020/12/07 07:43:11;;;;;;;0.20;0.20;;;;;;;;;;5051826;28;20027;-74
2020/12/07 07:45:37;;;;;;;0.25;0.25;;;;;;;;;;5034335;28;20009;-73
2020/12/07 07:48:19;;;;;;;0.20;0.20;;;;;;;;;;5070539;28;20040;-73
2020/12/07 08:15:33;;;;;;;0.30;0.30;;;;;;;;;;5051183;28;20051;-72
2020/12/07 08:17:59;;;;;;;0.20;0.20;;;;;;;;;;5053510;28;20021;-71
2020/12/07 08:20:27;;;;;;;0.30;0.30;;;;;;;;;;5051636;28;20017;-71
2020/12/07 08:22:56;;;;;;;0.20;0.20;;;;;;;;;;5051800;28;20033;-71
2020/12/07 08:25:41;;;;;;;0.20;0.20;;;;;;;;;;5031850;28;20021;-71
2020/12/07 08:28:18;;;;;;;0.20;0.20;;;;;;;;;;5047166;28;20779;-71
2020/12/07 08:31:10;;;;;;;0.20;0.20;;;;;;;;;;5076711;28;20024;-73
2020/12/07 08:33:37;;;;;;;0.20;0.20;;;;;;;;;;5076180;28;20440;-72
2020/12/07 08:36:03;;;;;;;0.20;0.20;;;;;;;;;;5075628;28;20034;-72
2020/12/07 08:38:38;;;;;;;0.22;0.22;;;;;;;;;;5064960;28;20103;-72
2020/12/07 08:41:03;;;;;;;0.30;0.30;;;;;;;;;;5038107;28;20029;-71
2020/12/07 08:43:29;;;;;;;0.20;0.20;;;;;;;;;;5034464;28;20536;-71
2020/12/07 08:45:54;;;;;;;0.30;0.30;;;;;;;;;;5034949;28;20017;-71
2020/12/07 08:48:19;;;;;;;0.20;0.20;;;;;;;;;;5048053;28;20017;-71
2020/12/07 08:50:44;;;;;;;0.20;0.20;;;;;;;;;;5055962;28;20454;-71
2020/12/07 08:53:26;;;;;;;0.20;0.20;;;;;;;;;;5054948;28;20118;-71
2020/12/07 08:55:52;;;;;;;0.20;0.20;;;;;;;;;;5054585;28;20033;-75
2020/12/07 08:58:17;;;;;;;0.20;0.20;;;;;;;;;;5037790;28;20082;-74
2020/12/07 09:00:43;;;;;;;0.20;0.20;;;;;;;;;;5054606;28;20059;-75
2020/12/07 09:03:08;;;;;;;0.20;0.20;;;;;;;;;;5054281;28;20028;-75
2020/12/07 09:05:34;;;;;;;0.20;0.20;;;;;;;;;;5052652;28;20042;-74
2020/12/07 09:07:59;;;;;;;0.20;0.20;;;;;;;;;;5047345;28;20014;-74
2020/12/07 09:10:24;;;;;;;0.30;0.30;;;;;;;;;;5063800;28;20045;-75
2020/12/07 09:12:50;;;;;;;0.30;0.30;;;;;;;;;;5074621;28;20078;-75
2020/12/07 09:15:15;;;;;;;0.20;0.20;;;;;;;;;;5074722;28;20047;-74
2020/12/07 09:17:40;;;;;;;0.20;0.20;;;;;;;;;;5068593;28;20419;-75
2020/12/07 09:20:06;;;;;;;0.20;0.20;;;;;;;;;;5079865;28;20035;-76
2020/12/07 09:22:32;;;;;;;0.20;0.20;;;;;;;;;;5076710;28;20024;-75
2020/12/07 09:24:57;;;;;;;0.20;0.20;;;;;;;;;;5083603;28;20046;-75
2020/12/07 09:27:22;;;;;;;0.28;0.28;;;;;;;;;;5075631;28;20078;-75
2020/12/07 09:29:48;;;;;;;0.20;0.20;;;;;;;;;;5074906;28;20021;-76
2020/12/07 09:32:13;;;;;;;0.20;0.20;;;;;;;;;;5075336;28;20081;-76
2020/12/07 09:34:39;;;;;;;0.20;0.20;;;;;;;;;;5086074;28;20483;-77
2020/12/07 09:37:04;;;;;;;0.20;0.20;;;;;;;;;;5060801;28;20074;-76
2020/12/07 09:39:30;;;;;;;0.20;0.20;;;;;;;;;;5074344;28;20020;-76
2020/12/07 09:41:57;;;;;;;0.22;0.22;;;;;;;;;;5076147;28;20031;-76
2020/12/07 09:44:22;;;;;;;0.20;0.20;;;;;;;;;;5074646;28;20016;-77
2020/12/07 09:46:48;;;;;;;0.20;0.20;;;;;;;;;;5074531;28;20019;-74
2020/12/07 09:49:13;;;;;;;0.20;0.20;;;;;;;;;;5074082;28;20392;-74
2020/12/07 09:51:38;;;;;;;0.20;0.20;;;;;;;;;;5073961;28;20023;-74
2020/12/07 09:54:04;;;;;;;0.20;0.20;;;;;;;;;;5074142;28;20020;-76
2020/12/07 09:56:30;;;;;;;0.30;0.30;;;;;;;;;;5074621;28;20043;-74
2020/12/07 09:58:56;;;;;;;0.20;0.20;;;;;;;;;;5076199;28;20031;-75
2020/12/07 10:01:21;;;;;;;0.30;0.30;;;;;;;;;;5074409;28;20024;-76
2020/12/07 10:03:47;;;;;;;0.20;0.20;;;;;;;;;;5073220;28;20050;-76
2020/12/07 10:06:12;;;;;;;0.20;0.20;;;;;;;;;;5075541;28;20078;-76
2020/12/07 10:08:38;;;;;;;0.30;0.30;;;;;;;;;;5059178;28;20107;-75
2020/12/07 10:11:03;;;;;;;0.20;0.20;;;;;;;;;;5060938;28;20497;-76
2020/12/07 10:13:29;;;;;;;0.20;0.20;;;;;;;;;;5092265;28;20027;-76
2020/12/07 10:15:54;;;;;;;0.20;0.20;;;;;;;;;;5115514;28;20012;-77
2020/12/07 10:18:20;;;;;;;0.20;0.20;;;;;;;;;;5079343;28;20080;-77
2020/12/07 10:20:46;;;;;;;0.20;0.20;;;;;;;;;;5097207;28;20020;-78
2020/12/07 10:23:11;;;;;;;0.20;0.20;;;;;;;;;;5096292;28;20020;-77
2020/12/07 10:25:37;;;;;;;0.30;0.30;;;;;;;;;;5078131;28;20026;-77
2020/12/07 10:28:02;;;;;;;0.25;0.25;;;;;;;;;;5078159;28;20060;-76
2020/12/07 10:30:28;;;;;;;0.20;0.20;;;;;;;;;;5076222;28;20012;-76
2020/12/07 10:32:53;;;;;;;0.28;0.28;;;;;;;;;;5095659;28;20024;-76
2020/12/07 10:35:18;;;;;;;0.20;0.20;;;;;;;;;;5076847;28;20070;-76
2020/12/07 10:37:45;;;;;;;0.20;0.20;;;;;;;;;;5060102;28;20062;-76
2020/12/07 10:40:10;;;;;;;0.20;0.20;;;;;;;;;;5057909;28;20046;-77
2020/12/07 10:42:36;;;;;;;0.30;0.30;;;;;;;;;;5082609;28;20025;-76
2020/12/07 10:45:01;;;;;;;0.20;0.20;;;;;;;;;;5061444;28;20069;-76
2020/12/07 10:47:27;;;;;;;0.20;0.20;;;;;;;;;;5077751;28;20116;-76
2020/12/07 10:49:52;;;;;;;0.20;0.20;;;;;;;;;;5070252;28;20012;-76
2020/12/07 10:52:17;;;;;;;0.22;0.22;;;;;;;;;;5077535;28;20016;-76
2020/12/07 10:54:43;;;;;;;0.20;0.20;;;;;;;;;;5077102;28;20034;-76
2020/12/07 10:57:08;;;;;;;0.20;0.20;;;;;;;;;;5094365;28;20111;-75
2020/12/07 10:59:34;;;;;;;0.20;0.20;;;;;;;;;;5076797;28;20052;-76
2020/12/07 11:01:59;;;;;;;0.20;0.20;;;;;;;;;;5076953;28;20050;-76
2020/12/07 11:04:24;;;;;;;0.20;0.20;;;;;;;;;;5099999;28;20020;-75
2020/12/07 11:06:52;;;;;;;0.20;0.20;;;;;;;;;;5053414;28;20070;-76
2020/12/07 11:09:23;;;;;;;0.20;0.20;;;;;;;;;;5069736;28;20061;-75
2020/12/07 11:11:48;;;;;;;0.20;0.20;;;;;;;;;;5052898;28;20013;-75
2020/12/07 11:14:16;;;;;;;0.30;0.30;;;;;;;;;;5036152;28;20473;-75
2020/12/07 11:16:41;;;;;;;0.20;0.20;;;;;;;;;;5068494;28;20035;-76
2020/12/07 11:19:07;;;;;;;0.20;0.20;;;;;;;;;;5074196;28;20024;-76
2020/12/07 11:21:33;;;;;;;0.20;0.20;;;;;;;;;;5074272;28;20045;-76
2020/12/07 11:23:58;;;;;;;0.20;0.20;;;;;;;;;;5074216;28;20031;-79
2020/12/07 11:26:23;;;;;;;0.20;0.20;;;;;;;;;;5076098;28;20065;-76
2020/12/07 11:28:49;;;;;;;0.20;0.20;;;;;;;;;;5077785;28;20012;-76
2020/12/07 11:31:14;;;;;;;0.20;0.20;;;;;;;;;;5072881;28;20012;-76
2020/12/07 11:33:40;;;;;;;0.20;0.20;;;;;;;;;;5056701;28;20024;-76
2020/12/07 11:36:05;;;;;;;0.20;0.20;;;;;;;;;;5057404;28;20028;-76
2020/12/07 11:38:35;;;;;;;0.30;0.30;;;;;;;;;;5063729;28;20408;-76
2020/12/07 11:46:34;;;;;;;0.20;0.20;;;;;;;;;;5057419;28;20024;-76
2020/12/07 11:48:59;;;;;;;0.20;0.20;;;;;;;;;;5083500;28;20073;-76
2020/12/07 11:51:25;;;;;;;0.20;0.20;;;;;;;;;;5085677;28;20048;-77
2020/12/07 11:53:52;;;;;;;0.20;0.20;;;;;;;;;;5084974;28;20031;-76
2020/12/07 11:56:25;;;;;;;0.20;0.20;;;;;;;;;;5100889;28;20027;-77
2020/12/07 11:58:50;;;;;;;0.20;0.20;;;;;;;;;;5109931;28;20012;-76
2020/12/07 12:01:16;;;;;;;0.20;0.20;;;;;;;;;;5101262;28;20053;-76
2020/12/07 12:03:42;;;;;;;0.20;0.20;;;;;;;;;;5091375;28;20020;-77
2020/12/07 12:06:07;;;;;;;0.20;0.20;;;;;;;;;;5073014;28;20525;-76
2020/12/07 12:08:33;;;;;;;0.20;0.20;;;;;;;;;;5060816;28;20032;-76
2020/12/07 12:10:59;;;;;;;0.20;0.20;;;;;;;;;;5071035;28;20817;-77
2020/12/07 12:13:24;;;;;;;0.20;0.20;;;;;;;;;;5086784;28;20023;-74
2020/12/07 12:15:53;;;;;;;0.20;0.20;;;;;;;;;;5057281;28;20023;-75
2020/12/07 12:18:18;;;;;;;0.20;0.20;;;;;;;;;;5069202;28;20032;-75
2020/12/07 12:20:48;;;;;;;0.20;0.20;;;;;;;;;;5069803;28;20024;-75
2020/12/07 12:23:13;;;;;;;0.20;0.20;;;;;;;;;;5090644;28;20434;-75
2020/12/07 12:25:40;;;;;;;0.20;0.20;;;;;;;;;;5072725;28;20020;-74
2020/12/07 12:28:05;;;;;;;0.20;0.20;;;;;;;;;;5058880;28;20024;-75
2020/12/07 12:30:31;;;;;;;0.20;0.20;;;;;;;;;;5056052;28;20483;-76
2020/12/07 12:32:56;;;;;;;0.20;0.20;;;;;;;;;;5054914;28;20428;-74
2020/12/07 12:35:22;;;;;;;0.20;0.20;;;;;;;;;;5055541;28;20419;-74
2020/12/07 12:37:47;;;;;;;0.20;0.20;;;;;;;;;;5068702;28;20483;-74
2020/12/07 12:40:13;;;;;;;0.20;0.20;;;;;;;;;;5094252;28;20107;-77
2020/12/07 12:42:39;;;;;;;0.20;0.20;;;;;;;;;;5095942;28;20099;-78
2020/12/07 12:45:04;;;;;;;0.20;0.20;;;;;;;;;;5077005;28;20031;-77
2020/12/07 12:47:29;;;;;;;0.20;0.20;;;;;;;;;;5079286;28;20016;-79
2020/12/07 12:49:55;;;;;;;0.20;0.20;;;;;;;;;;5078148;28;20046;-77
2020/12/07 12:52:20;;;;;;;0.20;0.20;;;;;;;;;;5055806;28;20020;-76
2020/12/07 12:54:46;;;;;;;0.20;0.20;;;;;;;;;;5075254;28;20020;-77
2020/12/07 12:57:11;;;;;;;0.20;0.20;;;;;;;;;;5094573;28;20024;-77
2020/12/07 12:59:36;;;;;;;0.20;0.20;;;;;;;;;;5076865;28;20016;-77
2020/12/07 13:02:02;;;;;;;0.20;0.20;;;;;;;;;;5056186;28;20039;-77
2020/12/07 13:04:28;;;;;;;0.20;0.20;;;;;;;;;;5056397;28;20021;-77
2020/12/07 13:06:54;;;;;;;0.20;0.20;;;;;;;;;;5060255;28;20026;-77
2020/12/07 13:09:19;;;;;;;0.20;0.20;;;;;;;;;;5049538;28;20716;-77
2020/12/07 13:11:48;;;;;;;0.20;0.20;;;;;;;;;;5033084;28;20040;-76
2020/12/07 13:14:13;;;;;;;0.20;0.20;;;;;;;;;;5035670;28;20060;-77
2020/12/07 13:16:58;;;;;;;0.20;0.20;;;;;;;;;;5039472;28;20017;-78
2020/12/07 13:19:24;;;;;;;0.20;0.20;;;;;;;;;;5056215;28;20051;-77
2020/12/07 13:22:08;;;;;;;0.20;0.20;;;;;;;;;;5056654;28;20033;-77
2020/12/07 13:29:55;;;;;;;0.20;0.20;;;;;;;;;;5056528;28;20017;-77
2020/12/07 13:32:20;;;;;;;0.20;0.20;;;;;;;;;;5055813;28;20019;-77
2020/12/07 13:34:45;;;;;;;0.20;0.20;;;;;;;;;;5054720;28;20027;-77
2020/12/07 13:37:11;;;;;;;0.20;0.20;;;;;;;;;;5053985;28;20400;-77
2020/12/07 13:39:37;;;;;;;0.20;0.20;;;;;;;;;;5054050;28;20021;-77
2020/12/07 13:42:02;;;;;;;0.20;0.20;;;;;;;;;;5053950;28;20025;-77
2020/12/07 13:44:28;;;;;;;0.10;0.10;;;;;;;;;;5032291;28;20160;-77
2020/12/07 13:46:56;;;;;;;0.20;0.20;;;;;;;;;;5055003;28;20146;-77
2020/12/07 13:49:22;;;;;;;0.10;0.10;;;;;;;;;;5054644;28;20035;-77
2020/12/07 13:51:47;;;;;;;0.20;0.20;;;;;;;;;;5054539;28;20712;-77
2020/12/07 13:54:13;;;;;;;0.20;0.20;;;;;;;;;;5055701;28;20099;-75
2020/12/07 13:56:42;;;;;;;0.20;0.20;;;;;;;;;;5053069;28;20021;-77
2020/12/07 13:59:08;;;;;;;0.20;0.20;;;;;;;;;;5036002;28;20025;-77
2020/12/07 14:01:37;;;;;;;0.20;0.20;;;;;;;;;;5054030;28;20029;-77
2020/12/07 14:04:29;;;;;;;0.20;0.20;;;;;;;;;;5052730;28;20036;-76
2020/12/07 14:06:54;;;;;;;0.20;0.20;;;;;;;;;;5054231;28;20736;-76
2020/12/07 14:09:20;;;;;;;0.10;0.10;;;;;;;;;;5065729;28;20120;-77
2020/12/07 14:11:48;;;;;;;0.20;0.20;;;;;;;;;;5061362;28;20027;-76
2020/12/07 14:14:14;;;;;;;0.20;0.20;;;;;;;;;;5076316;28;20035;-77
2020/12/07 14:16:39;;;;;;;0.10;0.10;;;;;;;;;;5076568;28;20506;-77
2020/12/07 14:19:09;;;;;;;0.45;0.20;;;;;;;;;;5056108;28;20032;-77
2020/12/07 14:24:17;;;;;;;0.20;0.20;;;;;;;;;;5097046;28;20020;-78
2020/12/07 14:27:02;;;;;;;0.20;0.20;;;;;;;;;;5058618;28;20020;-78
2020/12/07 14:40:14;;;;;;;0.20;0.20;;;;;;;;;;5095763;28;20039;-77
2020/12/07 14:42:40;;;;;;;0.20;0.20;;;;;;;;;;5096481;28;20032;-77
2020/12/07 14:45:08;;;;;;;0.20;0.20;;;;;;;;;;5095846;28;20016;-78
2020/12/07 14:47:38;;;;;;;0.20;0.20;;;;;;;;;;5064691;28;20103;-78
2020/12/07 14:50:10;;;;;;;0.20;0.20;;;;;;;;;;5065688;28;20056;-77
2020/12/07 14:52:36;;;;;;;0.20;0.20;;;;;;;;;;5080965;28;20017;-77
2020/12/07 14:55:14;;;;;;;0.20;0.20;;;;;;;;;;5077528;28;20038;-76
2020/12/07 15:06:10;;;;;;;0.20;0.20;;;;;;;;;;5010305;28;20406;-76
2020/12/07 15:16:16;;;;;;;0.20;0.20;;;;;;;;;;5076295;28;20047;-78
2020/12/07 15:18:42;;;;;;;0.20;0.20;;;;;;;;;;5070043;28;20484;-77
2020/12/07 15:21:07;;;;;;;0.20;0.20;;;;;;;;;;5039436;28;20493;-78
2020/12/07 15:23:33;;;;;;;0.20;0.20;;;;;;;;;;5057312;28;20025;-77
2020/12/07 15:25:58;;;;;;;0.20;0.20;;;;;;;;;;5058404;28;20491;-78
2020/12/07 15:28:23;;;;;;;0.20;0.20;;;;;;;;;;5076631;28;20024;-78
2020/12/07 15:30:49;;;;;;;0.20;0.20;;;;;;;;;;5074057;28;20021;-76
2020/12/07 15:33:14;;;;;;;0.20;0.20;;;;;;;;;;5073414;28;20044;-77
2020/12/07 15:35:39;;;;;;;0.20;0.20;;;;;;;;;;5073069;28;20048;-77
2020/12/07 15:38:05;;;;;;;0.30;0.30;;;;;;;;;;5074743;28;20049;-77
2020/12/07 15:40:31;;;;;;;0.20;0.20;;;;;;;;;;5074508;28;20027;-77
2020/12/07 15:42:56;;;;;;;0.20;0.20;;;;;;;;;;5074077;28;20009;-77